sensor_id;sensor_type;location;lat;lon;timestamp;pressure;altitude;pressure_sealevel;temperature;humidity
71151;BME280;59071;42.138;24.768;2023-05-11T00:00:29;100136.56;;;11.62;70.56
71151;BME280;59071;42.138;24.768;2023-05-11T00:02:54;100146.72;;;11.38;71.31
71151;BME280;59071;42.138;24.768;2023-05-11T00:05:20;100148.16;;;11.34;72.22
71151;BME280;59071;42.138;24.768;2023-05-11T00:07:45;100144.53;;;11.55;70.94
71151;BME280;59071;42.138;24.768;2023-05-11T00:10:10;100151.31;;;11.09;73.20
71151;BME280;59071;42.138;24.768;2023-05-11T00:12:35;100146.09;;;11.36;71.61
71151;BME280;59071;42.138;24.768;2023-05-11T00:15:01;100149.38;;;11.38;71.16
71151;BME280;59071;42.138;24.768;2023-05-11T00:17:26;100144.06;;;12.06;69.33
71151;BME280;59071;42.138;24.768;2023-05-11T00:19:52;100144.88;;;12.07;68.93
71151;BME280;59071;42.138;24.768;2023-05-11T00:22:17;100148.97;;;12.03;69.04
71151;BME280;59071;42.138;24.768;2023-05-11T00:24:42;100157.41;;;12.06;69.20
71151;BME280;59071;42.138;24.768;2023-05-11T00:27:07;100158.09;;;11.60;70.61
71151;BME280;59071;42.138;24.768;2023-05-11T00:29:33;100157.84;;;11.55;70.00
71151;BME280;59071;42.138;24.768;2023-05-11T00:31:58;100150.25;;;11.45;72.03
71151;BME280;59071;42.138;24.768;2023-05-11T00:34:23;100158.09;;;11.60;71.65
71151;BME280;59071;42.138;24.768;2023-05-11T00:36:49;100161.38;;;11.62;71.65
71151;BME280;59071;42.138;24.768;2023-05-11T00:39:14;100165.94;;;11.75;71.21
71151;BME280;59071;42.138;24.768;2023-05-11T00:41:39;100169.28;;;11.97;70.14
71151;BME280;59071;42.138;24.768;2023-05-11T00:44:05;100164.56;;;11.92;70.10
71151;BME280;59071;42.138;24.768;2023-05-11T00:46:30;100165.00;;;12.09;69.59
71151;BME280;59071;42.138;24.768;2023-05-11T00:48:56;100163.88;;;11.77;70.51
71151;BME280;59071;42.138;24.768;2023-05-11T00:51:21;100157.75;;;11.77;69.97
71151;BME280;59071;42.138;24.768;2023-05-11T00:53:47;100161.22;;;11.84;70.66
71151;BME280;59071;42.138;24.768;2023-05-11T00:56:12;100166.88;;;12.09;69.18
71151;BME280;59071;42.138;24.768;2023-05-11T00:58:38;100165.09;;;11.68;70.84
71151;BME280;59071;42.138;24.768;2023-05-11T01:01:04;100165.09;;;11.68;70.36
71151;BME280;59071;42.138;24.768;2023-05-11T01:03:29;100165.56;;;11.91;70.49
71151;BME280;59071;42.138;24.768;2023-05-11T01:06:09;100161.03;;;11.79;70.64
71151;BME280;59071;42.138;24.768;2023-05-11T01:08:39;100167.22;;;11.99;70.30
71151;BME280;59071;42.138;24.768;2023-05-11T01:16:17;100165.44;;;12.20;69.27
71151;BME280;59071;42.138;24.768;2023-05-11T01:18:55;100165.31;;;11.80;70.69
71151;BME280;59071;42.138;24.768;2023-05-11T01:21:23;100169.03;;;11.85;70.69
71151;BME280;59071;42.138;24.768;2023-05-11T01:24:36;100177.97;;;11.58;70.89
71151;BME280;59071;42.138;24.768;2023-05-11T01:31:54;100173.22;;;11.46;72.36
71151;BME280;59071;42.138;24.768;2023-05-11T01:34:21;100174.59;;;11.42;72.83
71151;BME280;59071;42.138;24.768;2023-05-11T01:37:09;100180.53;;;11.31;73.42
71151;BME280;59071;42.138;24.768;2023-05-11T01:39:35;100172.91;;;11.76;71.59
71151;BME280;59071;42.138;24.768;2023-05-11T01:42:10;100174.78;;;11.82;71.31
71151;BME280;59071;42.138;24.768;2023-05-11T01:44:40;100175.09;;;11.52;71.85
71151;BME280;59071;42.138;24.768;2023-05-11T01:47:06;100181.19;;;12.01;70.58
71151;BME280;59071;42.138;24.768;2023-05-11T01:49:32;100168.59;;;11.82;70.68
71151;BME280;59071;42.138;24.768;2023-05-11T01:52:00;100164.78;;;12.04;70.56
71151;BME280;59071;42.138;24.768;2023-05-11T01:54:26;100172.09;;;11.76;70.24
71151;BME280;59071;42.138;24.768;2023-05-11T01:56:52;100167.63;;;11.89;71.01
71151;BME280;59071;42.138;24.768;2023-05-11T01:59:19;100165.22;;;12.08;70.41
71151;BME280;59071;42.138;24.768;2023-05-11T02:01:44;100161.88;;;11.31;72.59
71151;BME280;59071;42.138;24.768;2023-05-11T02:04:10;100160.94;;;11.52;72.81
71151;BME280;59071;42.138;24.768;2023-05-11T02:06:35;100167.56;;;11.76;71.78
71151;BME280;59071;42.138;24.768;2023-05-11T02:09:02;100162.75;;;12.00;70.73
71151;BME280;59071;42.138;24.768;2023-05-11T02:11:28;100169.50;;;10.99;74.63
71151;BME280;59071;42.138;24.768;2023-05-11T02:13:54;100162.38;;;11.61;72.86
71151;BME280;59071;42.138;24.768;2023-05-11T02:16:20;100160.13;;;11.58;71.46
71151;BME280;59071;42.138;24.768;2023-05-11T02:18:47;100171.03;;;11.70;71.80
71151;BME280;59071;42.138;24.768;2023-05-11T02:21:13;100168.09;;;11.51;72.34
71151;BME280;59071;42.138;24.768;2023-05-11T02:23:40;100167.09;;;11.11;73.57
71151;BME280;59071;42.138;24.768;2023-05-11T02:26:06;100167.28;;;10.74;75.48
71151;BME280;59071;42.138;24.768;2023-05-11T02:28:32;100165.28;;;10.12;78.81
71151;BME280;59071;42.138;24.768;2023-05-11T02:30:59;100172.78;;;10.45;77.40
71151;BME280;59071;42.138;24.768;2023-05-11T02:33:27;100170.88;;;10.39;77.71
71151;BME280;59071;42.138;24.768;2023-05-11T02:35:55;100167.81;;;10.63;76.52
71151;BME280;59071;42.138;24.768;2023-05-11T02:38:22;100170.09;;;10.45;76.44
71151;BME280;59071;42.138;24.768;2023-05-11T02:40:50;100173.34;;;10.18;78.14
71151;BME280;59071;42.138;24.768;2023-05-11T02:43:19;100170.56;;;10.27;78.79
71151;BME280;59071;42.138;24.768;2023-05-11T02:45:45;100165.41;;;10.47;76.87
71151;BME280;59071;42.138;24.768;2023-05-11T02:48:16;100168.53;;;10.50;76.90
71151;BME280;59071;42.138;24.768;2023-05-11T02:50:43;100168.03;;;10.18;78.61
71151;BME280;59071;42.138;24.768;2023-05-11T02:53:11;100173.06;;;10.56;77.07
71151;BME280;59071;42.138;24.768;2023-05-11T02:55:39;100175.59;;;10.65;76.71
71151;BME280;59071;42.138;24.768;2023-05-11T02:58:05;100180.75;;;11.01;75.25
71151;BME280;59071;42.138;24.768;2023-05-11T03:00:31;100172.06;;;11.21;73.66
71151;BME280;59071;42.138;24.768;2023-05-11T03:02:56;100180.94;;;11.34;74.02
71151;BME280;59071;42.138;24.768;2023-05-11T03:05:23;100183.81;;;11.33;72.85
71151;BME280;59071;42.138;24.768;2023-05-11T03:07:48;100188.13;;;10.99;74.28
71151;BME280;59071;42.138;24.768;2023-05-11T03:10:13;100190.97;;;10.98;74.28
71151;BME280;59071;42.138;24.768;2023-05-11T03:12:39;100187.34;;;11.05;74.79
71151;BME280;59071;42.138;24.768;2023-05-11T03:15:05;100185.06;;;11.02;74.98
71151;BME280;59071;42.138;24.768;2023-05-11T03:17:31;100188.91;;;10.93;74.92
71151;BME280;59071;42.138;24.768;2023-05-11T03:19:57;100195.50;;;10.69;75.95
71151;BME280;59071;42.138;24.768;2023-05-11T03:22:23;100193.53;;;10.56;75.57
71151;BME280;59071;42.138;24.768;2023-05-11T03:24:49;100192.53;;;10.57;76.31
71151;BME280;59071;42.138;24.768;2023-05-11T03:27:14;100197.59;;;10.52;76.57
71151;BME280;59071;42.138;24.768;2023-05-11T03:29:40;100195.84;;;10.87;75.40
71151;BME280;59071;42.138;24.768;2023-05-11T03:32:07;100191.06;;;10.83;75.31
71151;BME280;59071;42.138;24.768;2023-05-11T03:34:33;100199.41;;;10.73;75.21
71151;BME280;59071;42.138;24.768;2023-05-11T03:36:58;100198.88;;;10.56;77.13
71151;BME280;59071;42.138;24.768;2023-05-11T03:39:24;100195.16;;;10.79;76.67
71151;BME280;59071;42.138;24.768;2023-05-11T03:41:51;100191.59;;;11.34;76.17
71151;BME280;59071;42.138;24.768;2023-05-11T03:44:17;100199.31;;;11.23;74.64
71151;BME280;59071;42.138;24.768;2023-05-11T03:46:46;100203.94;;;11.07;75.15
71151;BME280;59071;42.138;24.768;2023-05-11T03:49:12;100203.13;;;11.07;74.92
71151;BME280;59071;42.138;24.768;2023-05-11T03:51:38;100205.22;;;10.83;75.46
71151;BME280;59071;42.138;24.768;2023-05-11T03:54:04;100202.13;;;10.80;75.69
71151;BME280;59071;42.138;24.768;2023-05-11T03:56:29;100195.69;;;10.67;75.92
71151;BME280;59071;42.138;24.768;2023-05-11T03:58:55;100197.91;;;10.64;76.39
71151;BME280;59071;42.138;24.768;2023-05-11T04:01:20;100194.56;;;10.83;75.93
71151;BME280;59071;42.138;24.768;2023-05-11T04:03:50;100206.66;;;10.57;76.30
71151;BME280;59071;42.138;24.768;2023-05-11T04:06:16;100206.31;;;10.67;76.67
71151;BME280;59071;42.138;24.768;2023-05-11T04:08:41;100200.59;;;10.42;77.65
71151;BME280;59071;42.138;24.768;2023-05-11T04:11:07;100202.50;;;9.90;79.36
71151;BME280;59071;42.138;24.768;2023-05-11T04:13:32;100211.53;;;10.54;78.74
71151;BME280;59071;42.138;24.768;2023-05-11T04:15:58;100208.91;;;10.32;78.61
71151;BME280;59071;42.138;24.768;2023-05-11T04:18:23;100210.31;;;10.13;78.61
71151;BME280;59071;42.138;24.768;2023-05-11T04:20:48;100211.72;;;10.09;79.79
71151;BME280;59071;42.138;24.768;2023-05-11T04:23:14;100213.81;;;10.35;79.14
71151;BME280;59071;42.138;24.768;2023-05-11T04:25:39;100209.16;;;10.87;77.46
71151;BME280;59071;42.138;24.768;2023-05-11T04:28:05;100208.31;;;10.59;77.16
71151;BME280;59071;42.138;24.768;2023-05-11T04:30:30;100216.44;;;10.79;76.10
71151;BME280;59071;42.138;24.768;2023-05-11T04:32:55;100214.09;;;11.25;74.56
71151;BME280;59071;42.138;24.768;2023-05-11T04:35:20;100226.38;;;11.20;74.12
71151;BME280;59071;42.138;24.768;2023-05-11T04:37:46;100212.72;;;11.84;72.70
71151;BME280;59071;42.138;24.768;2023-05-11T04:40:11;100221.88;;;12.17;71.33
71151;BME280;59071;42.138;24.768;2023-05-11T04:42:36;100218.66;;;11.80;71.60
71151;BME280;59071;42.138;24.768;2023-05-11T04:45:02;100222.50;;;11.70;71.81
71151;BME280;59071;42.138;24.768;2023-05-11T04:47:27;100216.41;;;11.77;74.78
71151;BME280;59071;42.138;24.768;2023-05-11T04:49:52;100209.25;;;14.66;83.17
71151;BME280;59071;42.138;24.768;2023-05-11T04:52:18;100212.81;;;14.53;62.70
71151;BME280;59071;42.138;24.768;2023-05-11T04:54:43;100205.06;;;13.75;64.79
71151;BME280;59071;42.138;24.768;2023-05-11T04:57:08;100210.97;;;13.11;65.23
71151;BME280;59071;42.138;24.768;2023-05-11T04:59:33;100220.19;;;12.02;69.93
71151;BME280;59071;42.138;24.768;2023-05-11T05:01:59;100225.59;;;11.74;71.49
71151;BME280;59071;42.138;24.768;2023-05-11T05:04:24;100219.66;;;11.72;72.07
71151;BME280;59071;42.138;24.768;2023-05-11T05:06:50;100214.50;;;11.64;72.50
71151;BME280;59071;42.138;24.768;2023-05-11T05:09:15;100241.38;;;11.27;73.32
71151;BME280;59071;42.138;24.768;2023-05-11T05:11:40;100231.63;;;11.06;74.34
71151;BME280;59071;42.138;24.768;2023-05-11T05:14:06;100232.78;;;11.32;73.48
71151;BME280;59071;42.138;24.768;2023-05-11T05:16:31;100233.75;;;11.18;74.37
71151;BME280;59071;42.138;24.768;2023-05-11T05:18:56;100237.69;;;11.00;75.03
71151;BME280;59071;42.138;24.768;2023-05-11T05:21:21;100213.63;;;11.15;74.55
71151;BME280;59071;42.138;24.768;2023-05-11T05:23:47;100218.41;;;11.74;71.81
71151;BME280;59071;42.138;24.768;2023-05-11T05:26:12;100219.97;;;11.55;72.40
71151;BME280;59071;42.138;24.768;2023-05-11T05:28:37;100228.03;;;12.24;70.22
71151;BME280;59071;42.138;24.768;2023-05-11T05:31:03;100218.41;;;12.23;70.21
71151;BME280;59071;42.138;24.768;2023-05-11T05:33:28;100215.16;;;12.47;69.66
71151;BME280;59071;42.138;24.768;2023-05-11T05:35:54;100222.75;;;12.57;68.84
71151;BME280;59071;42.138;24.768;2023-05-11T05:38:19;100230.28;;;12.33;69.78
71151;BME280;59071;42.138;24.768;2023-05-11T05:40:45;100238.34;;;12.54;69.87
71151;BME280;59071;42.138;24.768;2023-05-11T05:43:10;100239.19;;;12.74;68.83
71151;BME280;59071;42.138;24.768;2023-05-11T05:45:35;100235.47;;;12.95;67.16
71151;BME280;59071;42.138;24.768;2023-05-11T05:48:01;100256.63;;;12.63;67.72
71151;BME280;59071;42.138;24.768;2023-05-11T05:50:26;100249.19;;;12.19;68.96
71151;BME280;59071;42.138;24.768;2023-05-11T05:52:51;100246.22;;;11.93;70.33
71151;BME280;59071;42.138;24.768;2023-05-11T05:55:17;100250.53;;;12.01;69.60
71151;BME280;59071;42.138;24.768;2023-05-11T05:57:42;100231.13;;;12.21;69.88
71151;BME280;59071;42.138;24.768;2023-05-11T06:00:08;100242.81;;;12.33;69.14
71151;BME280;59071;42.138;24.768;2023-05-11T06:02:33;100240.81;;;12.82;67.17
71151;BME280;59071;42.138;24.768;2023-05-11T06:04:59;100245.94;;;13.10;66.18
71151;BME280;59071;42.138;24.768;2023-05-11T06:07:24;100235.41;;;13.42;65.87
71151;BME280;59071;42.138;24.768;2023-05-11T06:09:49;100236.69;;;12.66;66.21
71151;BME280;59071;42.138;24.768;2023-05-11T06:12:14;100241.00;;;12.40;67.53
71151;BME280;59071;42.138;24.768;2023-05-11T06:14:40;100270.97;;;12.42;66.75
71151;BME280;59071;42.138;24.768;2023-05-11T06:17:05;100255.34;;;12.32;68.00
71151;BME280;59071;42.138;24.768;2023-05-11T06:19:30;100242.16;;;11.98;68.31
71151;BME280;59071;42.138;24.768;2023-05-11T06:21:56;100247.13;;;12.27;67.18
71151;BME280;59071;42.138;24.768;2023-05-11T06:24:21;100260.91;;;12.44;65.90
71151;BME280;59071;42.138;24.768;2023-05-11T06:26:46;100241.22;;;12.45;65.62
71151;BME280;59071;42.138;24.768;2023-05-11T06:29:12;100258.50;;;12.89;65.00
71151;BME280;59071;42.138;24.768;2023-05-11T06:31:37;100251.28;;;12.63;63.80
71151;BME280;59071;42.138;24.768;2023-05-11T06:34:02;100245.31;;;13.01;63.54
71151;BME280;59071;42.138;24.768;2023-05-11T06:36:28;100238.09;;;13.22;62.53
71151;BME280;59071;42.138;24.768;2023-05-11T06:38:53;100253.13;;;12.96;62.48
71151;BME280;59071;42.138;24.768;2023-05-11T06:41:19;100236.28;;;12.82;62.54
71151;BME280;59071;42.138;24.768;2023-05-11T06:43:45;100239.78;;;13.03;62.17
71151;BME280;59071;42.138;24.768;2023-05-11T06:46:10;100251.69;;;13.34;62.46
71151;BME280;59071;42.138;24.768;2023-05-11T06:48:40;100247.72;;;13.56;62.55
71151;BME280;59071;42.138;24.768;2023-05-11T06:51:08;100238.31;;;13.40;61.50
71151;BME280;59071;42.138;24.768;2023-05-11T06:53:33;100239.66;;;13.69;61.33
71151;BME280;59071;42.138;24.768;2023-05-11T06:55:58;100255.16;;;13.41;62.11
71151;BME280;59071;42.138;24.768;2023-05-11T06:58:24;100245.31;;;13.35;61.83
71151;BME280;59071;42.138;24.768;2023-05-11T07:00:49;100243.06;;;14.22;58.79
71151;BME280;59071;42.138;24.768;2023-05-11T07:03:14;100234.41;;;14.26;59.53
71151;BME280;59071;42.138;24.768;2023-05-11T07:05:40;100236.78;;;14.41;59.44
71151;BME280;59071;42.138;24.768;2023-05-11T07:08:05;100236.94;;;14.46;57.85
71151;BME280;59071;42.138;24.768;2023-05-11T07:10:30;100236.09;;;14.53;57.74
71151;BME280;59071;42.138;24.768;2023-05-11T07:12:56;100228.28;;;13.74;59.36
71151;BME280;59071;42.138;24.768;2023-05-11T07:15:21;100219.25;;;13.68;58.99
71151;BME280;59071;42.138;24.768;2023-05-11T07:17:46;100231.88;;;13.55;58.91
71151;BME280;59071;42.138;24.768;2023-05-11T07:20:12;100234.44;;;12.96;60.55
71151;BME280;59071;42.138;24.768;2023-05-11T07:22:38;100203.81;;;13.71;57.56
71151;BME280;59071;42.138;24.768;2023-05-11T07:25:03;100239.09;;;14.38;57.25
71151;BME280;59071;42.138;24.768;2023-05-11T07:27:28;100220.06;;;14.46;56.05
71151;BME280;59071;42.138;24.768;2023-05-11T07:29:55;100221.97;;;14.39;56.22
71151;BME280;59071;42.138;24.768;2023-05-11T07:32:20;100236.34;;;14.76;54.29
71151;BME280;59071;42.138;24.768;2023-05-11T07:34:46;100244.34;;;13.81;56.56
71151;BME280;59071;42.138;24.768;2023-05-11T07:37:11;100248.69;;;14.14;56.71
71151;BME280;59071;42.138;24.768;2023-05-11T07:39:36;100244.72;;;14.23;56.52
71151;BME280;59071;42.138;24.768;2023-05-11T07:42:01;100232.91;;;14.69;55.79
71151;BME280;59071;42.138;24.768;2023-05-11T07:44:27;100248.44;;;14.60;55.45
71151;BME280;59071;42.138;24.768;2023-05-11T07:46:53;100225.91;;;14.93;55.27
71151;BME280;59071;42.138;24.768;2023-05-11T07:49:19;100232.78;;;14.51;55.47
71151;BME280;59071;42.138;24.768;2023-05-11T07:51:44;100222.56;;;14.73;55.26
71151;BME280;59071;42.138;24.768;2023-05-11T07:54:09;100213.06;;;14.77;56.33
71151;BME280;59071;42.138;24.768;2023-05-11T07:56:34;100220.94;;;15.34;56.16
71151;BME280;59071;42.138;24.768;2023-05-11T07:59:00;100226.28;;;15.15;55.54
71151;BME280;59071;42.138;24.768;2023-05-11T08:01:25;100225.50;;;15.33;55.40
71151;BME280;59071;42.138;24.768;2023-05-11T08:03:50;100222.28;;;15.61;55.06
71151;BME280;59071;42.138;24.768;2023-05-11T08:06:16;100226.75;;;15.68;54.17
71151;BME280;59071;42.138;24.768;2023-05-11T08:08:41;100218.47;;;15.88;53.37
71151;BME280;59071;42.138;24.768;2023-05-11T08:11:07;100231.03;;;15.38;54.57
71151;BME280;59071;42.138;24.768;2023-05-11T08:13:33;100229.44;;;14.62;56.93
71151;BME280;59071;42.138;24.768;2023-05-11T08:15:58;100232.97;;;14.56;58.30
71151;BME280;59071;42.138;24.768;2023-05-11T08:18:23;100222.19;;;14.69;57.23
71151;BME280;59071;42.138;24.768;2023-05-11T08:20:48;100228.06;;;15.03;57.08
71151;BME280;59071;42.138;24.768;2023-05-11T08:23:14;100223.47;;;15.47;55.10
71151;BME280;59071;42.138;24.768;2023-05-11T08:25:51;100229.50;;;15.24;55.66
71151;BME280;59071;42.138;24.768;2023-05-11T08:28:17;100229.44;;;15.49;55.00
71151;BME280;59071;42.138;24.768;2023-05-11T08:30:43;100224.41;;;16.20;53.00
71151;BME280;59071;42.138;24.768;2023-05-11T08:33:09;100229.09;;;15.82;53.56
71151;BME280;59071;42.138;24.768;2023-05-11T08:35:34;100215.16;;;16.04;53.43
71151;BME280;59071;42.138;24.768;2023-05-11T08:37:59;100235.50;;;15.44;54.84
71151;BME280;59071;42.138;24.768;2023-05-11T08:40:25;100213.66;;;15.78;53.34
71151;BME280;59071;42.138;24.768;2023-05-11T08:42:51;100228.78;;;15.54;54.87
71151;BME280;59071;42.138;24.768;2023-05-11T08:45:18;100228.66;;;14.55;57.10
71151;BME280;59071;42.138;24.768;2023-05-11T08:47:44;100230.03;;;14.64;56.24
71151;BME280;59071;42.138;24.768;2023-05-11T08:50:10;100219.31;;;15.70;54.82
71151;BME280;59071;42.138;24.768;2023-05-11T08:52:36;100221.16;;;16.18;53.63
71151;BME280;59071;42.138;24.768;2023-05-11T08:55:01;100223.84;;;15.51;54.34
71151;BME280;59071;42.138;24.768;2023-05-11T08:57:27;100214.13;;;16.05;53.20
71151;BME280;59071;42.138;24.768;2023-05-11T08:59:55;100211.44;;;15.75;53.90
71151;BME280;59071;42.138;24.768;2023-05-11T09:02:20;100211.63;;;15.92;53.26
71151;BME280;59071;42.138;24.768;2023-05-11T09:04:46;100207.22;;;15.97;52.93
71151;BME280;59071;42.138;24.768;2023-05-11T09:07:13;100214.81;;;16.54;50.82
71151;BME280;59071;42.138;24.768;2023-05-11T09:09:39;100212.38;;;16.53;50.74
71151;BME280;59071;42.138;24.768;2023-05-11T09:12:06;100209.00;;;15.67;53.43
71151;BME280;59071;42.138;24.768;2023-05-11T09:14:32;100212.28;;;15.69;53.32
71151;BME280;59071;42.138;24.768;2023-05-11T09:16:57;100201.53;;;15.69;52.07
71151;BME280;59071;42.138;24.768;2023-05-11T09:19:23;100207.53;;;15.71;52.41
71151;BME280;59071;42.138;24.768;2023-05-11T09:21:48;100207.22;;;15.60;52.99
71151;BME280;59071;42.138;24.768;2023-05-11T09:24:16;100201.78;;;15.86;52.57
71151;BME280;59071;42.138;24.768;2023-05-11T09:26:41;100197.94;;;15.44;53.25
71151;BME280;59071;42.138;24.768;2023-05-11T09:29:06;100192.03;;;15.54;52.55
71151;BME280;59071;42.138;24.768;2023-05-11T09:31:45;100181.25;;;15.42;52.71
71151;BME280;59071;42.138;24.768;2023-05-11T09:36:42;100178.69;;;15.48;52.02
71151;BME280;59071;42.138;24.768;2023-05-11T09:39:08;100171.31;;;15.80;52.19
71151;BME280;59071;42.138;24.768;2023-05-11T09:41:34;100166.38;;;16.61;49.52
71151;BME280;59071;42.138;24.768;2023-05-11T09:44:12;100176.44;;;16.77;48.37
71151;BME280;59071;42.138;24.768;2023-05-11T09:46:39;100168.53;;;16.17;48.46
71151;BME280;59071;42.138;24.768;2023-05-11T09:49:05;100161.41;;;15.80;49.51
71151;BME280;59071;42.138;24.768;2023-05-11T09:51:32;100159.97;;;16.20;49.46
71151;BME280;59071;42.138;24.768;2023-05-11T09:53:58;100159.00;;;16.80;47.94
71151;BME280;59071;42.138;24.768;2023-05-11T09:56:46;100166.50;;;16.66;48.54
71151;BME280;59071;42.138;24.768;2023-05-11T09:59:16;100153.28;;;17.00;48.05
71151;BME280;59071;42.138;24.768;2023-05-11T10:01:41;100157.75;;;17.47;47.12
71151;BME280;59071;42.138;24.768;2023-05-11T10:04:07;100165.50;;;17.72;46.69
71151;BME280;59071;42.138;24.768;2023-05-11T10:09:10;100166.63;;;18.33;44.90
71151;BME280;59071;42.138;24.768;2023-05-11T10:11:36;100155.75;;;18.28;45.37
71151;BME280;59071;42.138;24.768;2023-05-11T10:14:02;100153.69;;;18.02;45.56
71151;BME280;59071;42.138;24.768;2023-05-11T10:16:27;100148.44;;;17.95;45.33
71151;BME280;59071;42.138;24.768;2023-05-11T10:18:53;100143.44;;;17.58;46.48
71151;BME280;59071;42.138;24.768;2023-05-11T10:21:18;100141.81;;;17.16;47.28
71151;BME280;59071;42.138;24.768;2023-05-11T10:23:44;100134.63;;;17.34;46.56
71151;BME280;59071;42.138;24.768;2023-05-11T10:26:09;100134.00;;;17.84;46.11
71151;BME280;59071;42.138;24.768;2023-05-11T10:28:35;100137.28;;;17.86;45.84
71151;BME280;59071;42.138;24.768;2023-05-11T10:31:02;100137.22;;;18.32;45.10
71151;BME280;59071;42.138;24.768;2023-05-11T10:33:27;100133.31;;;17.48;46.04
71151;BME280;59071;42.138;24.768;2023-05-11T10:35:53;100127.56;;;16.92;48.10
71151;BME280;59071;42.138;24.768;2023-05-11T10:38:19;100127.00;;;17.02;47.93
71151;BME280;59071;42.138;24.768;2023-05-11T10:40:46;100125.31;;;17.13;47.26
71151;BME280;59071;42.138;24.768;2023-05-11T10:51:45;100128.16;;;18.55;43.79
71151;BME280;59071;42.138;24.768;2023-05-11T11:02:06;100112.78;;;18.05;45.22
71151;BME280;59071;42.138;24.768;2023-05-11T11:04:45;100120.31;;;18.53;44.82
71151;BME280;59071;42.138;24.768;2023-05-11T11:07:11;100112.16;;;17.97;44.33
71151;BME280;59071;42.138;24.768;2023-05-11T11:09:55;100116.16;;;18.12;44.74
71151;BME280;59071;42.138;24.768;2023-05-11T11:12:21;100107.81;;;18.64;44.05
71151;BME280;59071;42.138;24.768;2023-05-11T11:19:43;100102.28;;;17.46;45.06
71151;BME280;59071;42.138;24.768;2023-05-11T11:24:52;100104.97;;;18.37;43.89
71151;BME280;59071;42.138;24.768;2023-05-11T11:27:18;100099.97;;;17.95;44.70
71151;BME280;59071;42.138;24.768;2023-05-11T11:30:13;100102.78;;;18.00;43.68
71151;BME280;59071;42.138;24.768;2023-05-11T11:32:28;100096.06;;;17.86;43.67
71151;BME280;59071;42.138;24.768;2023-05-11T11:34:54;100097.22;;;18.24;43.34
71151;BME280;59071;42.138;24.768;2023-05-11T11:37:19;100081.47;;;18.71;42.99
71151;BME280;59071;42.138;24.768;2023-05-11T11:39:47;100080.44;;;18.16;43.38
71151;BME280;59071;42.138;24.768;2023-05-11T11:42:17;100083.88;;;17.83;43.32
71151;BME280;59071;42.138;24.768;2023-05-11T11:44:43;100082.63;;;17.74;43.69
71151;BME280;59071;42.138;24.768;2023-05-11T11:49:34;100069.81;;;18.10;43.49
71151;BME280;59071;42.138;24.768;2023-05-11T11:52:01;100061.25;;;19.35;41.22
71151;BME280;59071;42.138;24.768;2023-05-11T11:54:37;100068.63;;;19.45;39.51
71151;BME280;59071;42.138;24.768;2023-05-11T11:57:03;100067.25;;;18.93;42.05
71151;BME280;59071;42.138;24.768;2023-05-11T11:59:28;100074.38;;;18.82;42.32
71151;BME280;59071;42.138;24.768;2023-05-11T12:01:54;100069.91;;;18.54;41.95
71151;BME280;59071;42.138;24.768;2023-05-11T12:04:32;100054.59;;;18.38;42.31
71151;BME280;59071;42.138;24.768;2023-05-11T12:07:00;100052.47;;;18.40;42.60
71151;BME280;59071;42.138;24.768;2023-05-11T12:09:27;100059.88;;;18.88;42.38
71151;BME280;59071;42.138;24.768;2023-05-11T12:11:52;100054.59;;;18.76;41.99
71151;BME280;59071;42.138;24.768;2023-05-11T12:14:18;100045.28;;;18.67;41.27
71151;BME280;59071;42.138;24.768;2023-05-11T12:16:58;100035.75;;;18.60;42.05
71151;BME280;59071;42.138;24.768;2023-05-11T12:19:23;100037.53;;;18.71;41.68
71151;BME280;59071;42.138;24.768;2023-05-11T12:21:49;100037.13;;;18.79;41.79
71151;BME280;59071;42.138;24.768;2023-05-11T12:24:14;100037.91;;;19.51;40.42
71151;BME280;59071;42.138;24.768;2023-05-11T12:26:39;100029.97;;;19.12;41.82
71151;BME280;59071;42.138;24.768;2023-05-11T12:29:06;100026.50;;;19.17;40.81
71151;BME280;59071;42.138;24.768;2023-05-11T12:31:35;100009.56;;;19.48;39.03
71151;BME280;59071;42.138;24.768;2023-05-11T12:34:00;100000.16;;;19.24;39.73
71151;BME280;59071;42.138;24.768;2023-05-11T12:36:25;100011.25;;;19.27;40.50
71151;BME280;59071;42.138;24.768;2023-05-11T12:38:50;100011.19;;;19.49;39.57
71151;BME280;59071;42.138;24.768;2023-05-11T12:41:19;100013.53;;;19.41;39.55
71151;BME280;59071;42.138;24.768;2023-05-11T12:43:50;100012.38;;;19.09;39.85
71151;BME280;59071;42.138;24.768;2023-05-11T12:46:16;100009.28;;;19.23;40.12
71151;BME280;59071;42.138;24.768;2023-05-11T12:48:42;99998.69;;;19.38;39.28
71151;BME280;59071;42.138;24.768;2023-05-11T12:51:07;99992.22;;;18.68;39.10
71151;BME280;59071;42.138;24.768;2023-05-11T12:53:33;99987.81;;;18.40;40.68
71151;BME280;59071;42.138;24.768;2023-05-11T12:56:00;99977.31;;;18.60;40.69
71151;BME280;59071;42.138;24.768;2023-05-11T12:58:25;99970.63;;;19.12;40.20
71151;BME280;59071;42.138;24.768;2023-05-11T13:05:47;99988.47;;;17.91;41.31
71151;BME280;59071;42.138;24.768;2023-05-11T13:08:12;99984.16;;;18.29;41.74
71151;BME280;59071;42.138;24.768;2023-05-11T13:10:38;99986.75;;;18.41;41.38
71151;BME280;59071;42.138;24.768;2023-05-11T13:13:04;99978.28;;;18.54;40.58
71151;BME280;59071;42.138;24.768;2023-05-11T13:15:30;99966.72;;;18.75;41.04
71151;BME280;59071;42.138;24.768;2023-05-11T13:17:59;99963.38;;;18.46;40.63
71151;BME280;59071;42.138;24.768;2023-05-11T13:20:25;99960.16;;;19.75;39.12
71151;BME280;59071;42.138;24.768;2023-05-11T13:25:28;99969.19;;;19.64;38.39